Time;durP1;ratioP1;P1;durP2;ratioP2;P2;SDS_P1;SDS_P2;PMS_P1;PMS_P2;Temp;Humidity;BMP_temperature;BMP_pressure;BME280_temperature;BME280_humidity;BME280_pressure;Samples;Min_cycle;Max_cycle;Signal;HPM_P1;HPM_P2
2022/08/31 00:05:29;;;;;;;1.42;0.70;;;;;23.30;102075.00;;;;5069697;28;20229;-76
2022/08/31 00:07:57;;;;;;;2.55;0.82;;;;;23.30;102076.00;;;;5083075;28;20217;-76
2022/08/31 00:10:27;;;;;;;1.33;0.90;;;;;23.20;102081.00;;;;5089666;28;20209;-76
2022/08/31 00:12:56;;;;;;;1.15;0.80;;;;;23.20;102072.00;;;;5088583;28;20655;-75
2022/08/31 00:15:25;;;;;;;1.40;0.70;;;;;23.20;102068.00;;;;5089398;28;20203;-76
2022/08/31 00:17:55;;;;;;;1.27;0.65;;;;;23.20;102071.00;;;;5089053;28;20198;-76
2022/08/31 00:20:23;;;;;;;0.93;0.70;;;;;23.20;102072.00;;;;5088597;28;20194;-76
2022/08/31 00:22:51;;;;;;;2.33;0.73;;;;;23.20;102078.00;;;;5088516;28;20233;-75
2022/08/31 00:25:18;;;;;;;2.85;0.95;;;;;23.10;102077.00;;;;5088937;28;20210;-76
2022/08/31 00:27:46;;;;;;;1.10;0.65;;;;;23.10;102079.00;;;;5086973;28;20602;-76
2022/08/31 00:30:15;;;;;;;2.75;1.30;;;;;23.10;102080.00;;;;5089001;28;20199;-76
2022/08/31 00:32:42;;;;;;;0.75;0.65;;;;;23.10;102070.00;;;;5088691;28;20615;-75
2022/08/31 00:35:10;;;;;;;1.63;0.93;;;;;23.10;102072.00;;;;5087458;28;20196;-75
2022/08/31 00:37:37;;;;;;;1.73;0.90;;;;;23.10;102070.00;;;;5087812;28;20202;-76
2022/08/31 00:40:05;;;;;;;0.85;0.80;;;;;23.10;102072.00;;;;5089258;28;20191;-75
2022/08/31 00:42:33;;;;;;;2.15;0.77;;;;;23.00;102072.00;;;;5084174;28;20194;-75
2022/08/31 00:45:00;;;;;;;1.27;0.60;;;;;23.00;102069.00;;;;5068665;28;20719;-75
2022/08/31 00:47:30;;;;;;;1.15;0.80;;;;;23.00;102071.00;;;;5088552;28;20241;-75
2022/08/31 00:49:59;;;;;;;0.80;0.80;;;;;22.90;102069.00;;;;5089273;28;20269;-75
2022/08/31 00:52:30;;;;;;;1.90;0.65;;;;;22.90;102062.00;;;;5087318;28;20194;-75
2022/08/31 00:55:01;;;;;;;1.95;0.70;;;;;22.80;102068.00;;;;5088279;28;20199;-75
2022/08/31 00:57:33;;;;;;;1.75;0.80;;;;;22.80;102064.00;;;;5087885;28;20194;-76
2022/08/31 01:00:04;;;;;;;1.52;0.93;;;;;22.80;102066.00;;;;5089048;28;20206;-75
2022/08/31 01:02:32;;;;;;;1.58;0.70;;;;;22.80;102068.00;;;;5086325;28;20664;-75
2022/08/31 01:05:00;;;;;;;1.10;0.70;;;;;22.80;102069.00;;;;5087805;28;20194;-76
2022/08/31 01:07:28;;;;;;;0.98;0.70;;;;;22.80;102065.00;;;;5088047;28;20240;-75
2022/08/31 01:09:56;;;;;;;0.70;0.70;;;;;22.80;102067.00;;;;5088339;28;20191;-75
2022/08/31 01:12:25;;;;;;;5.43;0.85;;;;;22.80;102070.00;;;;5087615;28;20200;-76
2022/08/31 01:14:52;;;;;;;2.30;0.82;;;;;22.70;102064.00;;;;5088792;28;20201;-76
2022/08/31 01:17:20;;;;;;;2.47;0.60;;;;;22.70;102064.00;;;;5086526;28;20698;-76
2022/08/31 01:19:57;;;;;;;0.90;0.70;;;;;22.60;102061.00;;;;5087768;28;20210;-76
2022/08/31 01:22:32;;;;;;;1.77;0.85;;;;;22.60;102065.00;;;;5087066;28;20224;-76
2022/08/31 01:25:01;;;;;;;0.80;0.60;;;;;22.70;102064.00;;;;5081001;28;20189;-76
2022/08/31 01:27:33;;;;;;;0.90;0.63;;;;;22.60;102066.00;;;;5087817;28;20244;-76
2022/08/31 01:30:01;;;;;;;1.80;1.08;;;;;22.60;102069.00;;;;5088157;28;20193;-76
2022/08/31 01:32:29;;;;;;;1.50;0.93;;;;;22.60;102066.00;;;;5086654;28;20194;-75
2022/08/31 01:34:56;;;;;;;0.93;0.77;;;;;22.60;102063.00;;;;5088247;28;20202;-75
2022/08/31 01:37:24;;;;;;;1.17;0.95;;;;;22.60;102070.00;;;;5087715;28;20211;-76
2022/08/31 01:39:52;;;;;;;1.40;1.15;;;;;22.50;102070.00;;;;5087901;28;20203;-75
2022/08/31 01:42:21;;;;;;;1.25;1.08;;;;;22.50;102066.00;;;;5085150;28;20218;-75
2022/08/31 01:44:48;;;;;;;1.23;1.13;;;;;22.50;102069.00;;;;5087767;28;20198;-76
2022/08/31 01:47:15;;;;;;;1.65;0.98;;;;;22.50;102070.00;;;;5087752;28;20222;-75
2022/08/31 01:49:43;;;;;;;1.55;1.02;;;;;22.50;102076.00;;;;5088604;28;20197;-75
2022/08/31 01:52:10;;;;;;;2.50;1.70;;;;;22.50;102064.00;;;;5093849;28;20197;-75
2022/08/31 01:54:37;;;;;;;2.03;1.38;;;;;22.40;102072.00;;;;5095120;28;20186;-75
2022/08/31 01:57:05;;;;;;;2.17;1.08;;;;;22.40;102065.00;;;;5094246;28;20205;-74
2022/08/31 01:59:33;;;;;;;1.30;0.80;;;;;22.40;102069.00;;;;5093333;28;20200;-75
2022/08/31 02:02:01;;;;;;;1.38;0.88;;;;;22.30;102070.00;;;;5094755;28;20194;-75
2022/08/31 02:04:29;;;;;;;0.90;0.80;;;;;22.30;102068.00;;;;5093831;28;20718;-75
2022/08/31 02:06:58;;;;;;;1.23;0.80;;;;;22.30;102064.00;;;;5092386;28;20226;-75
2022/08/31 02:09:28;;;;;;;1.00;0.70;;;;;22.30;102070.00;;;;5094054;28;20215;-75
2022/08/31 02:11:55;;;;;;;1.77;0.80;;;;;22.30;102066.00;;;;5094528;28;20233;-75
2022/08/31 02:14:23;;;;;;;0.90;0.80;;;;;22.20;102063.00;;;;5094083;28;20198;-75
2022/08/31 02:16:52;;;;;;;0.75;0.63;;;;;22.20;102069.00;;;;5093632;28;20206;-75
2022/08/31 02:19:19;;;;;;;0.98;0.82;;;;;22.20;102062.00;;;;5094169;28;20201;-75
2022/08/31 02:21:46;;;;;;;2.38;1.00;;;;;22.20;102072.00;;;;5093125;28;20218;-75
2022/08/31 02:24:14;;;;;;;1.33;1.00;;;;;22.20;102062.00;;;;5092323;28;20209;-74
2022/08/31 02:26:41;;;;;;;1.80;1.17;;;;;22.10;102060.00;;;;5093963;28;20222;-75
2022/08/31 02:29:08;;;;;;;1.30;0.90;;;;;22.10;102060.00;;;;5093930;28;20234;-75
2022/08/31 02:31:36;;;;;;;2.33;1.30;;;;;22.10;102062.00;;;;5093682;28;20213;-75
2022/08/31 02:34:05;;;;;;;0.60;0.57;;;;;22.10;102066.00;;;;5092787;28;20209;-75
2022/08/31 02:36:32;;;;;;;0.60;0.57;;;;;22.10;102064.00;;;;5093137;28;20209;-75
2022/08/31 02:39:01;;;;;;;0.70;0.70;;;;;22.10;102066.00;;;;5094120;28;20715;-75
2022/08/31 02:41:28;;;;;;;0.73;0.52;;;;;22.00;102073.00;;;;5092809;28;20202;-75
2022/08/31 02:43:55;;;;;;;2.30;0.80;;;;;22.00;102072.00;;;;5093557;28;20648;-75
2022/08/31 02:46:23;;;;;;;0.75;0.60;;;;;22.00;102067.00;;;;5093225;28;20233;-75
2022/08/31 02:48:50;;;;;;;0.95;0.75;;;;;22.00;102068.00;;;;5094108;28;20201;-75
2022/08/31 02:51:19;;;;;;;0.75;0.65;;;;;22.00;102071.00;;;;5092942;28;20191;-75
2022/08/31 02:53:46;;;;;;;1.38;0.70;;;;;21.90;102069.00;;;;5092978;28;20209;-75
2022/08/31 02:56:15;;;;;;;1.27;0.70;;;;;21.90;102060.00;;;;5079862;28;20210;-75
2022/08/31 02:58:42;;;;;;;0.93;0.47;;;;;21.90;102057.00;;;;5082479;28;20668;-75
2022/08/31 03:01:09;;;;;;;1.00;0.80;;;;;21.90;102062.00;;;;5091430;28;20198;-75
2022/08/31 03:03:38;;;;;;;0.98;0.80;;;;;21.90;102056.00;;;;5089547;28;20202;-75
2022/08/31 03:06:06;;;;;;;1.17;0.93;;;;;21.90;102066.00;;;;5091355;28;20268;-75
2022/08/31 03:08:34;;;;;;;1.48;0.80;;;;;21.80;102063.00;;;;5088985;28;20202;-75
2022/08/31 03:11:02;;;;;;;1.88;0.80;;;;;21.80;102069.00;;;;5089735;28;20253;-75
2022/08/31 03:13:29;;;;;;;2.45;0.95;;;;;21.80;102071.00;;;;5090647;28;20198;-75
2022/08/31 03:15:57;;;;;;;1.20;0.68;;;;;21.80;102073.00;;;;5089730;28;20199;-75
2022/08/31 03:18:24;;;;;;;1.27;0.90;;;;;21.80;102069.00;;;;5070350;28;20195;-75
2022/08/31 03:20:51;;;;;;;2.45;0.80;;;;;21.70;102064.00;;;;5090039;28;20202;-75
2022/08/31 03:23:19;;;;;;;1.30;1.00;;;;;21.70;102065.00;;;;5089347;28;20214;-75
2022/08/31 03:25:48;;;;;;;2.22;0.68;;;;;21.70;102065.00;;;;5087477;28;20201;-75
2022/08/31 03:28:16;;;;;;;1.38;0.93;;;;;21.70;102060.00;;;;5090361;28;20253;-76
2022/08/31 03:30:43;;;;;;;1.58;0.70;;;;;21.70;102064.00;;;;5090090;28;20241;-76
2022/08/31 03:33:11;;;;;;;0.80;0.55;;;;;21.70;102064.00;;;;5088843;28;20202;-75
2022/08/31 03:35:42;;;;;;;0.82;0.63;;;;;21.70;102065.00;;;;5089786;28;20419;-76
2022/08/31 03:38:11;;;;;;;1.00;0.50;;;;;21.70;102066.00;;;;5088499;28;20639;-76
2022/08/31 03:40:38;;;;;;;1.55;0.60;;;;;21.60;102061.00;;;;5089032;28;20194;-76
2022/08/31 03:43:10;;;;;;;0.75;0.60;;;;;21.60;102060.00;;;;5088817;28;20202;-75
2022/08/31 03:45:38;;;;;;;1.77;1.00;;;;;21.60;102059.00;;;;5084181;28;21058;-76
2022/08/31 03:48:06;;;;;;;1.88;0.88;;;;;21.60;102068.00;;;;5082402;28;20304;-76
2022/08/31 03:50:33;;;;;;;0.63;0.57;;;;;21.50;102062.00;;;;5089965;28;20206;-76
2022/08/31 03:53:02;;;;;;;1.00;0.60;;;;;21.50;102066.00;;;;5090146;28;20575;-75
2022/08/31 03:55:30;;;;;;;0.90;0.80;;;;;21.50;102074.00;;;;5087767;28;20236;-75
2022/08/31 03:57:59;;;;;;;1.58;0.70;;;;;21.50;102079.00;;;;5088753;28;20198;-76
2022/08/31 04:00:28;;;;;;;1.30;0.80;;;;;21.40;102080.00;;;;5089902;28;20204;-76
2022/08/31 04:02:58;;;;;;;0.95;0.88;;;;;21.40;102085.00;;;;5090559;28;20190;-75
2022/08/31 04:05:26;;;;;;;3.30;0.80;;;;;21.40;102078.00;;;;5089900;28;20393;-75
2022/08/31 04:07:53;;;;;;;0.93;0.57;;;;;21.40;102082.00;;;;5090186;28;20323;-76
2022/08/31 04:10:21;;;;;;;1.13;0.68;;;;;21.40;102081.00;;;;5088722;28;20319;-76
2022/08/31 04:12:49;;;;;;;0.95;0.65;;;;;21.30;102080.00;;;;5089126;28;20247;-75
2022/08/31 04:15:18;;;;;;;0.98;0.73;;;;;21.30;102075.00;;;;5090240;28;20206;-76
2022/08/31 04:17:47;;;;;;;1.05;0.73;;;;;21.30;102082.00;;;;5089014;28;20202;-75
2022/08/31 04:20:15;;;;;;;1.85;0.88;;;;;21.30;102079.00;;;;5070449;28;20205;-75
2022/08/31 04:22:42;;;;;;;0.77;0.50;;;;;21.30;102084.00;;;;5077404;28;20226;-75
2022/08/31 04:25:13;;;;;;;1.38;0.80;;;;;21.20;102088.00;;;;5088532;28;20207;-75
2022/08/31 04:27:40;;;;;;;1.00;0.60;;;;;21.20;102085.00;;;;5086445;28;20238;-75
2022/08/31 04:30:08;;;;;;;0.90;0.50;;;;;21.20;102078.00;;;;5088757;28;20205;-75
2022/08/31 04:32:36;;;;;;;0.82;0.60;;;;;21.20;102081.00;;;;5088140;28;20198;-76
2022/08/31 04:35:07;;;;;;;1.00;0.77;;;;;21.10;102077.00;;;;5089842;28;20667;-75
2022/08/31 04:37:34;;;;;;;4.03;1.00;;;;;21.10;102076.00;;;;5087350;28;20222;-75
2022/08/31 04:40:03;;;;;;;2.67;1.17;;;;;21.10;102083.00;;;;5085508;28;20664;-75
2022/08/31 04:42:30;;;;;;;1.52;0.95;;;;;21.10;102082.00;;;;5087159;28;20199;-75
2022/08/31 04:44:58;;;;;;;1.17;0.68;;;;;21.10;102081.00;;;;5089609;28;20217;-75
2022/08/31 04:47:28;;;;;;;1.00;0.70;;;;;21.10;102079.00;;;;5087522;28;20622;-75
2022/08/31 04:49:55;;;;;;;1.20;0.63;;;;;21.00;102092.00;;;;5087998;28;20667;-75
2022/08/31 04:52:24;;;;;;;1.85;1.35;;;;;21.00;102089.00;;;;5088193;28;20194;-75
2022/08/31 04:54:51;;;;;;;1.80;0.93;;;;;21.00;102088.00;;;;5085750;28;20190;-75
2022/08/31 04:57:18;;;;;;;1.17;0.88;;;;;21.00;102086.00;;;;5088297;28;20205;-75
2022/08/31 04:59:46;;;;;;;1.35;1.00;;;;;20.90;102086.00;;;;5088217;28;20210;-75
2022/08/31 05:02:13;;;;;;;2.13;0.75;;;;;20.90;102087.00;;;;5085107;28;20194;-75
2022/08/31 05:04:40;;;;;;;0.90;0.77;;;;;20.90;102088.00;;;;5088535;28;20683;-76
2022/08/31 05:07:07;;;;;;;6.32;0.60;;;;;20.90;102092.00;;;;5084194;28;20233;-75
2022/08/31 05:09:36;;;;;;;2.95;0.50;;;;;20.90;102095.00;;;;5086505;28;20206;-76
2022/08/31 05:12:04;;;;;;;0.40;0.30;;;;;20.90;102091.00;;;;5088971;28;20201;-75
2022/08/31 05:14:31;;;;;;;1.45;0.70;;;;;20.80;102094.00;;;;5088915;28;20191;-76
2022/08/31 05:17:00;;;;;;;0.82;0.57;;;;;20.80;102097.00;;;;5086204;28;20205;-76
2022/08/31 05:19:30;;;;;;;1.67;0.50;;;;;20.80;102097.00;;;;5088106;28;20198;-75
2022/08/31 05:21:58;;;;;;;1.15;0.65;;;;;20.80;102096.00;;;;5088021;28;20218;-76
2022/08/31 05:24:25;;;;;;;0.80;0.50;;;;;20.80;102107.00;;;;5087482;28;20680;-76
2022/08/31 05:26:56;;;;;;;0.73;0.50;;;;;20.70;102105.00;;;;5085380;28;20198;-76
2022/08/31 05:29:24;;;;;;;1.30;0.57;;;;;20.80;102109.00;;;;5087886;28;20308;-76
2022/08/31 05:31:52;;;;;;;1.35;0.75;;;;;20.80;102110.00;;;;5087075;28;20292;-75
2022/08/31 05:34:20;;;;;;;0.40;0.40;;;;;20.80;102102.00;;;;5078523;28;20202;-76
2022/08/31 05:36:51;;;;;;;0.80;0.50;;;;;20.70;102114.00;;;;5083997;28;20365;-76
2022/08/31 05:39:19;;;;;;;0.80;0.50;;;;;20.80;102108.00;;;;5088046;28;20187;-77
2022/08/31 05:41:47;;;;;;;3.55;0.57;;;;;20.80;102105.00;;;;5087288;28;20198;-77
2022/08/31 05:44:18;;;;;;;1.80;0.80;;;;;20.70;102110.00;;;;5086508;28;20194;-76
2022/08/31 05:46:45;;;;;;;0.80;0.40;;;;;20.80;102106.00;;;;5072726;28;20223;-76
2022/08/31 05:49:13;;;;;;;2.10;0.68;;;;;20.80;102107.00;;;;5077999;28;20230;-77
2022/08/31 05:51:40;;;;;;;2.60;0.60;;;;;20.80;102113.00;;;;5084642;28;20194;-77
2022/08/31 05:54:09;;;;;;;0.90;0.50;;;;;20.80;102102.00;;;;5085216;28;20201;-77
2022/08/31 05:56:37;;;;;;;2.80;0.60;;;;;20.80;102109.00;;;;5087588;28;20305;-76
2022/08/31 05:59:04;;;;;;;2.47;0.68;;;;;20.80;102117.00;;;;5088202;28;20206;-75
2022/08/31 06:01:36;;;;;;;1.20;0.88;;;;;20.80;102117.00;;;;5086038;28;20656;-76
2022/08/31 06:04:04;;;;;;;1.05;0.50;;;;;20.80;102129.00;;;;5079653;28;20199;-75
2022/08/31 06:06:32;;;;;;;3.78;0.68;;;;;20.80;102117.00;;;;5079767;28;20205;-76
2022/08/31 06:08:59;;;;;;;1.13;0.50;;;;;20.80;102115.00;;;;5088212;28;20226;-75
2022/08/31 06:11:29;;;;;;;0.45;0.40;;;;;20.90;102117.00;;;;5087669;28;20586;-75
2022/08/31 06:13:59;;;;;;;0.38;0.35;;;;;20.90;102116.00;;;;5088076;28;20194;-75
2022/08/31 06:16:27;;;;;;;0.82;0.30;;;;;21.00;102120.00;;;;5087067;28;20194;-75
2022/08/31 06:18:57;;;;;;;0.82;0.47;;;;;21.00;102121.00;;;;5087439;28;20296;-75
2022/08/31 06:21:26;;;;;;;1.70;0.57;;;;;21.00;102122.00;;;;5086443;28;20644;-75
2022/08/31 06:23:56;;;;;;;1.40;0.32;;;;;21.10;102116.00;;;;5087845;28;20644;-75
2022/08/31 06:26:26;;;;;;;0.70;0.30;;;;;21.10;102130.00;;;;5071442;28;20332;-76
2022/08/31 06:28:57;;;;;;;0.52;0.40;;;;;21.10;102118.00;;;;5071812;28;20707;-76
2022/08/31 06:31:29;;;;;;;0.73;0.40;;;;;21.10;102120.00;;;;5087109;28;20206;-75
2022/08/31 06:33:59;;;;;;;0.65;0.30;;;;;21.20;102125.00;;;;5088838;28;20653;-75
2022/08/31 06:36:28;;;;;;;1.08;0.43;;;;;21.20;102132.00;;;;5070339;28;20194;-75
2022/08/31 06:38:58;;;;;;;0.50;0.40;;;;;21.20;102130.00;;;;5071496;28;20191;-75
2022/08/31 06:41:28;;;;;;;0.75;0.38;;;;;21.20;102134.00;;;;5091391;28;20248;-75
2022/08/31 06:43:59;;;;;;;1.95;0.55;;;;;21.20;102138.00;;;;5091869;28;20191;-76
2022/08/31 06:46:26;;;;;;;0.60;0.30;;;;;21.30;102137.00;;;;5090926;28;20206;-75
2022/08/31 06:48:54;;;;;;;0.73;0.38;;;;;21.30;102135.00;;;;5091411;28;20222;-76
2022/08/31 06:51:23;;;;;;;0.65;0.30;;;;;21.40;102139.00;;;;5091192;28;20210;-75
2022/08/31 06:53:51;;;;;;;0.65;0.50;;;;;21.40;102132.00;;;;5090594;28;20804;-75
2022/08/31 06:56:22;;;;;;;1.40;0.70;;;;;21.50;102138.00;;;;5090138;28;20190;-76
2022/08/31 06:58:50;;;;;;;0.60;0.40;;;;;21.50;102138.00;;;;5091043;28;20206;-75
2022/08/31 07:01:20;;;;;;;0.47;0.40;;;;;21.60;102144.00;;;;5090049;28;20194;-75
2022/08/31 07:03:49;;;;;;;0.57;0.47;;;;;21.60;102142.00;;;;5088446;28;20255;-75
2022/08/31 07:06:19;;;;;;;1.95;0.40;;;;;21.70;102148.00;;;;5081926;28;20575;-76
2022/08/31 07:08:50;;;;;;;1.55;0.35;;;;;21.70;102157.00;;;;5089703;28;20238;-75
2022/08/31 07:11:21;;;;;;;1.42;0.20;;;;;21.80;102150.00;;;;5091467;28;20198;-76
2022/08/31 07:13:49;;;;;;;0.90;0.38;;;;;21.80;102158.00;;;;5089236;28;20207;-76
2022/08/31 07:16:19;;;;;;;0.22;0.20;;;;;21.90;102159.00;;;;5090305;28;20194;-76
2022/08/31 07:18:48;;;;;;;0.50;0.40;;;;;22.00;102160.00;;;;5089709;28;20288;-76
2022/08/31 07:21:18;;;;;;;0.60;0.38;;;;;22.00;102163.00;;;;5091070;28;20233;-76
2022/08/31 07:23:48;;;;;;;1.48;0.60;;;;;22.10;102155.00;;;;5089640;28;20277;-76
2022/08/31 07:26:20;;;;;;;2.22;0.32;;;;;22.10;102154.00;;;;5078261;28;20202;-76
2022/08/31 07:28:51;;;;;;;0.30;0.20;;;;;22.20;102158.00;;;;5082915;28;20238;-76
2022/08/31 07:31:21;;;;;;;0.90;0.40;;;;;22.30;102154.00;;;;5090442;28;20221;-75
2022/08/31 07:33:49;;;;;;;1.05;0.60;;;;;22.40;102163.00;;;;5090302;28;20198;-76
2022/08/31 07:36:18;;;;;;;1.67;0.30;;;;;22.50;102162.00;;;;5090505;28;20217;-76
2022/08/31 07:44:18;;;;;;;0.73;0.40;;;;;22.80;102163.00;;;;5085197;28;20206;-75
2022/08/31 07:46:46;;;;;;;1.73;0.65;;;;;22.80;102156.00;;;;5074299;28;20231;-75
2022/08/31 07:49:15;;;;;;;2.22;0.70;;;;;22.90;102159.00;;;;5087838;28;20633;-76
2022/08/31 07:51:49;;;;;;;0.70;0.40;;;;;23.00;102162.00;;;;5083998;28;20202;-76
2022/08/31 07:54:20;;;;;;;3.67;0.70;;;;;23.10;102159.00;;;;5089590;28;20583;-76
2022/08/31 07:56:49;;;;;;;3.35;0.50;;;;;23.20;102165.00;;;;5089135;28;20283;-76
2022/08/31 07:59:17;;;;;;;0.77;0.30;;;;;23.30;102162.00;;;;5090323;28;20237;-76
2022/08/31 08:01:45;;;;;;;0.77;0.52;;;;;23.40;102162.00;;;;5088843;28;20194;-77
2022/08/31 08:04:17;;;;;;;30.52;1.05;;;;;23.50;102165.00;;;;5088408;28;20202;-75
2022/08/31 08:06:44;;;;;;;2.35;0.60;;;;;23.60;102172.00;;;;5087392;28;20222;-75
2022/08/31 08:09:11;;;;;;;3.83;0.38;;;;;23.70;102181.00;;;;5087890;28;20718;-75
2022/08/31 08:11:45;;;;;;;1.85;0.60;;;;;23.80;102173.00;;;;5087437;28;20202;-75
2022/08/31 08:14:12;;;;;;;0.68;0.40;;;;;23.90;102169.00;;;;5088950;28;20255;-75
2022/08/31 08:16:40;;;;;;;0.80;0.60;;;;;24.00;102172.00;;;;5085913;28;20186;-76
2022/08/31 08:19:07;;;;;;;1.00;0.60;;;;;24.10;102171.00;;;;5083758;28;20198;-76
2022/08/31 08:21:34;;;;;;;1.52;0.60;;;;;24.20;102169.00;;;;5088748;28;20218;-76
2022/08/31 08:24:02;;;;;;;2.13;0.50;;;;;24.40;102172.00;;;;5088958;28;20199;-75
2022/08/31 08:26:29;;;;;;;2.22;0.50;;;;;24.50;102172.00;;;;5086724;28;20623;-76
2022/08/31 08:28:58;;;;;;;1.15;0.75;;;;;24.60;102172.00;;;;5088579;28;20238;-76
2022/08/31 08:31:27;;;;;;;2.90;0.65;;;;;24.70;102179.00;;;;5089060;28;20201;-76
2022/08/31 08:33:54;;;;;;;1.10;0.55;;;;;24.90;102177.00;;;;5078982;28;20199;-76
2022/08/31 08:36:22;;;;;;;1.20;0.60;;;;;25.00;102183.00;;;;5083491;28;20217;-76
2022/08/31 08:38:52;;;;;;;1.73;0.80;;;;;25.10;102177.00;;;;5087401;28;20239;-77
2022/08/31 08:41:22;;;;;;;1.48;0.82;;;;;25.20;102181.00;;;;5085809;28;20203;-76
2022/08/31 08:43:52;;;;;;;1.17;0.77;;;;;25.40;102176.00;;;;5087020;28;20194;-76
2022/08/31 08:46:28;;;;;;;0.82;0.60;;;;;25.50;102181.00;;;;5078028;28;20669;-76
2022/08/31 08:48:59;;;;;;;0.88;0.52;;;;;25.60;102184.00;;;;5079717;28;20345;-76
2022/08/31 08:51:33;;;;;;;0.65;0.63;;;;;25.70;102186.00;;;;5085909;28;20569;-76
2022/08/31 08:54:07;;;;;;;2.55;0.70;;;;;25.80;102192.00;;;;5084765;28;20193;-76
2022/08/31 08:56:35;;;;;;;2.50;1.05;;;;;26.00;102187.00;;;;5085276;28;20217;-76
2022/08/31 08:59:02;;;;;;;1.45;0.60;;;;;26.10;102182.00;;;;5083725;28;20202;-76
2022/08/31 09:01:34;;;;;;;2.35;0.70;;;;;26.10;102182.00;;;;5086111;28;20208;-76
2022/08/31 09:04:10;;;;;;;1.83;0.65;;;;;26.20;102180.00;;;;5085924;28;20202;-77
2022/08/31 09:06:46;;;;;;;3.33;0.68;;;;;26.30;102179.00;;;;5085726;28;20272;-75
2022/08/31 09:09:31;;;;;;;0.63;0.40;;;;;26.30;102176.00;;;;5088435;28;20285;-75
2022/08/31 09:12:21;;;;;;;1.30;0.73;;;;;26.40;102177.00;;;;5088624;28;20209;-76
2022/08/31 09:14:59;;;;;;;1.45;0.63;;;;;26.50;102175.00;;;;5083054;28;20546;-76
2022/08/31 09:17:41;;;;;;;0.63;0.45;;;;;26.60;102178.00;;;;5085127;28;20198;-75
2022/08/31 09:20:12;;;;;;;3.47;0.52;;;;;26.70;102175.00;;;;5085591;28;20282;-76
2022/08/31 09:22:47;;;;;;;1.40;0.50;;;;;26.80;102171.00;;;;5083713;28;20312;-76
2022/08/31 09:25:17;;;;;;;1.08;0.52;;;;;27.00;102174.00;;;;5087042;28;20255;-75
2022/08/31 09:27:56;;;;;;;0.65;0.65;;;;;27.10;102174.00;;;;5087746;28;20261;-75
2022/08/31 09:30:50;;;;;;;1.00;0.50;;;;;27.20;102179.00;;;;5086735;28;20225;-75
2022/08/31 09:33:21;;;;;;;3.05;0.70;;;;;27.40;102176.00;;;;5075784;28;20190;-76
2022/08/31 09:35:55;;;;;;;1.40;0.70;;;;;27.50;102179.00;;;;5086198;28;20245;-76
2022/08/31 09:38:31;;;;;;;2.03;0.70;;;;;27.60;102181.00;;;;5087008;28;20224;-77
2022/08/31 09:41:00;;;;;;;0.55;0.47;;;;;27.70;102179.00;;;;5088114;28;20198;-76
2022/08/31 09:43:33;;;;;;;4.18;0.68;;;;;27.80;102175.00;;;;5086740;28;20749;-77
2022/08/31 09:46:06;;;;;;;1.15;0.65;;;;;28.00;102180.00;;;;5088121;28;20871;-76
2022/08/31 09:48:45;;;;;;;1.15;0.70;;;;;28.00;102175.00;;;;5087405;28;20233;-77
2022/08/31 09:51:21;;;;;;;3.65;1.10;;;;;28.10;102173.00;;;;5088011;28;20299;-77
2022/08/31 09:56:54;;;;;;;1.33;0.90;;;;;28.20;102178.00;;;;5086675;28;20209;-76
2022/08/31 09:59:39;;;;;;;1.10;0.80;;;;;28.20;102176.00;;;;5083179;28;20272;-75
2022/08/31 10:02:12;;;;;;;0.90;0.80;;;;;28.40;102170.00;;;;5087186;28;20206;-76
2022/08/31 10:04:50;;;;;;;1.48;0.88;;;;;28.40;102168.00;;;;5087747;28;20201;-76
2022/08/31 10:07:36;;;;;;;1.75;0.80;;;;;28.50;102169.00;;;;5086174;28;20202;-76
2022/08/31 10:10:09;;;;;;;3.13;0.50;;;;;28.70;102175.00;;;;5086675;28;20245;-75
2022/08/31 10:12:42;;;;;;;1.40;0.60;;;;;28.80;102175.00;;;;5090980;28;20209;-74
2022/08/31 10:15:16;;;;;;;1.35;0.80;;;;;29.00;102175.00;;;;5081727;28;20197;-75
2022/08/31 10:17:50;;;;;;;1.15;0.70;;;;;29.10;102185.00;;;;5091078;28;20205;-75
2022/08/31 10:20:21;;;;;;;0.50;0.43;;;;;29.20;102188.00;;;;5091195;28;20198;-75
2022/08/31 10:22:55;;;;;;;0.90;0.50;;;;;29.30;102184.00;;;;5089572;28;20245;-76
2022/08/31 10:25:29;;;;;;;1.35;0.80;;;;;29.30;102183.00;;;;5078208;28;20960;-76
2022/08/31 10:28:05;;;;;;;0.90;0.65;;;;;29.40;102172.00;;;;5081773;28;20695;-75
2022/08/31 10:30:38;;;;;;;1.27;0.70;;;;;29.50;102170.00;;;;5083127;28;20225;-76
2022/08/31 10:33:13;;;;;;;0.85;0.57;;;;;29.50;102165.00;;;;5090612;28;20202;-75
2022/08/31 10:35:50;;;;;;;0.77;0.63;;;;;29.60;102170.00;;;;5089426;28;20193;-75
2022/08/31 10:38:25;;;;;;;2.15;0.60;;;;;29.60;102173.00;;;;5088564;28;20210;-75
2022/08/31 10:41:00;;;;;;;0.88;0.50;;;;;29.70;102163.00;;;;5091238;28;20715;-76
2022/08/31 10:43:34;;;;;;;1.10;0.70;;;;;29.70;102162.00;;;;5090310;28;20204;-76
2022/08/31 10:46:02;;;;;;;0.80;0.57;;;;;29.80;102158.00;;;;5090438;28;20281;-75
2022/08/31 10:48:29;;;;;;;1.38;0.60;;;;;29.90;102159.00;;;;5089512;28;20205;-76
2022/08/31 10:51:08;;;;;;;2.55;0.55;;;;;30.00;102158.00;;;;5090686;28;20194;-76
2022/08/31 10:53:44;;;;;;;5.65;0.82;;;;;30.00;102164.00;;;;5089883;28;20279;-76
2022/08/31 10:56:19;;;;;;;1.17;0.75;;;;;30.00;102170.00;;;;5082777;28;20201;-77
2022/08/31 10:59:06;;;;;;;1.40;0.45;;;;;30.00;102167.00;;;;5089129;28;20194;-77
2022/08/31 11:01:44;;;;;;;0.73;0.40;;;;;30.00;102170.00;;;;5088898;28;20203;-77
2022/08/31 11:04:51;;;;;;;0.70;0.45;;;;;30.00;102167.00;;;;5090821;28;20251;-78
2022/08/31 11:07:39;;;;;;;2.25;0.50;;;;;30.00;102168.00;;;;5077998;28;20213;-77
2022/08/31 11:10:18;;;;;;;2.63;0.52;;;;;30.10;102170.00;;;;5080215;28;20218;-79
2022/08/31 11:12:56;;;;;;;1.02;0.80;;;;;30.00;102163.00;;;;5084175;28;20194;-77
2022/08/31 11:16:04;;;;;;;1.17;0.60;;;;;30.00;102177.00;;;;5089385;28;20217;-78
2022/08/31 11:18:55;;;;;;;0.90;0.60;;;;;30.00;102165.00;;;;5079034;28;20186;-78
2022/08/31 11:21:45;;;;;;;1.40;0.70;;;;;30.00;102169.00;;;;5088289;28;20194;-76
2022/08/31 11:24:33;;;;;;;1.52;0.93;;;;;30.00;102165.00;;;;5086685;28;20214;-77
2022/08/31 11:27:10;;;;;;;1.40;0.70;;;;;29.90;102171.00;;;;5086488;28;20220;-77
2022/08/31 11:29:42;;;;;;;1.50;0.60;;;;;29.90;102166.00;;;;5088619;28;20608;-77
2022/08/31 11:32:19;;;;;;;0.70;0.60;;;;;29.70;102154.00;;;;5087812;28;20204;-77
2022/08/31 11:34:50;;;;;;;1.67;0.73;;;;;29.70;102160.00;;;;5088145;28;20255;-78
2022/08/31 11:37:55;;;;;;;4.13;0.75;;;;;29.50;102156.00;;;;5088976;28;20724;-76
2022/08/31 11:41:09;;;;;;;2.35;0.60;;;;;29.40;102161.00;;;;5080358;28;20225;-75
2022/08/31 11:43:50;;;;;;;0.68;0.60;;;;;29.30;102158.00;;;;5086897;28;20194;-75
2022/08/31 11:47:01;;;;;;;4.38;0.70;;;;;29.20;102142.00;;;;5087717;28;20198;-75
2022/08/31 11:49:43;;;;;;;0.82;0.55;;;;;29.20;102145.00;;;;5067869;28;20320;-75
2022/08/31 11:52:37;;;;;;;0.85;0.57;;;;;29.30;102137.00;;;;5087486;28;20217;-76
2022/08/31 11:55:28;;;;;;;0.93;0.50;;;;;29.40;102129.00;;;;5089793;28;20202;-76
2022/08/31 11:58:18;;;;;;;0.77;0.57;;;;;29.30;102136.00;;;;5089318;28;20206;-75
2022/08/31 12:00:52;;;;;;;0.90;0.60;;;;;29.40;102129.00;;;;5090019;28;20291;-76
2022/08/31 12:03:51;;;;;;;1.88;1.00;;;;;29.40;102129.00;;;;5090008;28;20251;-76
2022/08/31 12:07:07;;;;;;;0.80;0.50;;;;;29.40;102130.00;;;;4988163;28;20194;-76
2022/08/31 12:09:58;;;;;;;2.13;0.68;;;;;29.40;102125.00;;;;5084694;28;20226;-76
2022/08/31 12:12:43;;;;;;;2.10;0.70;;;;;29.50;102118.00;;;;5088857;28;20683;-76
2022/08/31 12:15:19;;;;;;;2.88;0.80;;;;;29.60;102118.00;;;;5089625;28;20194;-76
2022/08/31 12:17:59;;;;;;;2.92;0.65;;;;;29.60;102107.00;;;;5088870;28;20193;-76
2022/08/31 12:20:31;;;;;;;1.10;0.63;;;;;29.70;102121.00;;;;5090018;28;20202;-76
2022/08/31 12:23:36;;;;;;;4.22;0.60;;;;;29.70;102112.00;;;;5088180;28;20249;-76
2022/08/31 12:26:25;;;;;;;1.35;0.70;;;;;29.80;102097.00;;;;5069542;28;20202;-75
2022/08/31 12:29:18;;;;;;;1.65;0.50;;;;;29.90;102102.00;;;;5065716;28;20223;-76
2022/08/31 12:32:08;;;;;;;0.50;0.40;;;;;29.90;102090.00;;;;5065869;28;20252;-76
2022/08/31 12:34:38;;;;;;;1.15;0.68;;;;;30.00;102102.00;;;;5068950;28;20199;-76
2022/08/31 12:37:22;;;;;;;1.33;0.85;;;;;30.00;102098.00;;;;5077421;28;20199;-76
2022/08/31 12:40:04;;;;;;;1.88;0.70;;;;;30.10;102105.00;;;;5089623;28;20194;-76
2022/08/31 12:42:33;;;;;;;0.98;0.50;;;;;30.20;102093.00;;;;5087699;28;20201;-76
2022/08/31 12:45:01;;;;;;;3.00;0.75;;;;;30.20;102096.00;;;;5086783;28;20206;-76